N635SA KUDD-KSEZ
Flight info
| Callsign | N635SA |
|---|---|
| Flight time | 1h 37m |
| Altitude | 11000 |
| Route | KUDD1 TRM V208 EED V12 DRRTY DCT |
| Aircraft | BE36/L-BDFGLORY/S |
Departure
| Time | 2026-04-29 23:55 |
|---|---|
| Airport | Bermuda Dunes Airport (KUDD) |
Arrival
| Time | 2026-04-30 01:32 |
|---|---|
| Airport | Sedona Airport (KSEZ) |
| Time | Latitude | Longitude | Altitude | Speed | Heading |
|---|---|---|---|---|---|
| 2026-04-29 23:33 | 33.74482 | -116.26957 | 66 ft | 0 kts | 270° |
| 2026-04-29 23:47 | 33.74482 | -116.26963 | 66 ft | 2 kts | 270° |
| 2026-04-29 23:47 | 33.74522 | -116.26978 | 66 ft | 10 kts | 360° |
| 2026-04-29 23:47 | 33.74593 | -116.26994 | 66 ft | 11 kts | 297° |
| 2026-04-29 23:47 | 33.74626 | -116.27091 | 67 ft | 12 kts | 294° |
| 2026-04-29 23:48 | 33.74662 | -116.27183 | 67 ft | 12 kts | 296° |
| 2026-04-29 23:48 | 33.74706 | -116.27287 | 68 ft | 14 kts | 298° |
| 2026-04-29 23:48 | 33.74750 | -116.27391 | 69 ft | 13 kts | 293° |
| 2026-04-29 23:48 | 33.74789 | -116.27488 | 70 ft | 12 kts | 296° |
| 2026-04-29 23:49 | 33.74829 | -116.27586 | 72 ft | 13 kts | 295° |
| 2026-04-29 23:49 | 33.74871 | -116.27692 | 74 ft | 14 kts | 297° |
| 2026-04-29 23:49 | 33.74916 | -116.27805 | 76 ft | 15 kts | 296° |
| 2026-04-29 23:49 | 33.74963 | -116.27917 | 80 ft | 15 kts | 294° |
| 2026-04-29 23:50 | 33.75009 | -116.28033 | 83 ft | 15 kts | 294° |
| 2026-04-29 23:50 | 33.75058 | -116.28153 | 85 ft | 16 kts | 298° |
| 2026-04-29 23:50 | 33.75093 | -116.28242 | 86 ft | 0 kts | 297° |
| 2026-04-29 23:53 | 33.75120 | -116.28233 | 86 ft | 7 kts | 38° |
| 2026-04-29 23:54 | 33.75135 | -116.28204 | 86 ft | 0 kts | 119° |
| 2026-04-29 23:54 | 33.75058 | -116.28016 | 83 ft | 53 kts | 116° |
| 2026-04-29 23:54 | 33.74846 | -116.27492 | 101 ft | 78 kts | 115° |
| 2026-04-29 23:54 | 33.74602 | -116.26903 | 263 ft | 80 kts | 117° |
| 2026-04-29 23:55 | 33.74305 | -116.26265 | 377 ft | 90 kts | 119° |
| 2026-04-29 23:55 | 33.73811 | -116.25847 | 580 ft | 88 kts | 159° |
| 2026-04-29 23:55 | 33.73201 | -116.25629 | 751 ft | 92 kts | 160° |
| 2026-04-29 23:55 | 33.72575 | -116.25417 | 926 ft | 95 kts | 163° |
| 2026-04-29 23:56 | 33.71922 | -116.25198 | 1084 ft | 99 kts | 161° |
| 2026-04-29 23:56 | 33.71263 | -116.24960 | 1281 ft | 99 kts | 163° |
| 2026-04-29 23:56 | 33.70681 | -116.24537 | 1451 ft | 102 kts | 138° |
| 2026-04-29 23:56 | 33.70143 | -116.23938 | 1577 ft | 108 kts | 139° |
| 2026-04-29 23:57 | 33.69578 | -116.23334 | 1758 ft | 108 kts | 139° |
| 2026-04-29 23:57 | 33.69019 | -116.22726 | 1947 ft | 108 kts | 139° |
| 2026-04-29 23:57 | 33.68453 | -116.22117 | 2107 ft | 110 kts | 139° |
| 2026-04-29 23:57 | 33.67875 | -116.21494 | 2289 ft | 111 kts | 138° |
| 2026-04-29 23:58 | 33.67302 | -116.20873 | 2476 ft | 112 kts | 139° |
| 2026-04-29 23:58 | 33.66711 | -116.20235 | 2662 ft | 112 kts | 138° |
| 2026-04-29 23:58 | 33.66129 | -116.19604 | 2810 ft | 115 kts | 138° |
| 2026-04-29 23:58 | 33.65527 | -116.18955 | 2952 ft | 118 kts | 138° |
| 2026-04-29 23:59 | 33.64900 | -116.18278 | 3123 ft | 120 kts | 139° |
| 2026-04-29 23:59 | 33.64278 | -116.17602 | 3303 ft | 121 kts | 139° |
| 2026-04-29 23:59 | 33.63910 | -116.16711 | 3484 ft | 123 kts | 92° |
| 2026-04-29 23:59 | 33.64164 | -116.15745 | 3628 ft | 125 kts | 48° |
| 2026-04-30 00:00 | 33.64903 | -116.15250 | 3828 ft | 119 kts | 1° |
| 2026-04-30 00:00 | 33.65685 | -116.15205 | 4039 ft | 110 kts | 13° |
| 2026-04-30 00:00 | 33.66315 | -116.14701 | 4188 ft | 111 kts | 36° |
| 2026-04-30 00:00 | 33.66931 | -116.14127 | 4343 ft | 110 kts | 33° |
| 2026-04-30 00:01 | 33.67518 | -116.13621 | 4565 ft | 102 kts | 32° |
| 2026-04-30 00:01 | 33.68105 | -116.13175 | 4751 ft | 98 kts | 28° |
| 2026-04-30 00:01 | 33.68683 | -116.12736 | 4904 ft | 98 kts | 27° |
| 2026-04-30 00:01 | 33.69238 | -116.12294 | 5066 ft | 96 kts | 30° |
| 2026-04-30 00:02 | 33.69795 | -116.11830 | 5221 ft | 96 kts | 29° |
| 2026-04-30 00:02 | 33.70347 | -116.11366 | 5355 ft | 98 kts | 29° |
| 2026-04-30 00:02 | 33.70905 | -116.10902 | 5506 ft | 99 kts | 30° |
| 2026-04-30 00:02 | 33.71471 | -116.10429 | 5653 ft | 100 kts | 29° |
| 2026-04-30 00:03 | 33.72053 | -116.09943 | 5803 ft | 100 kts | 30° |
| 2026-04-30 00:03 | 33.72620 | -116.09472 | 5958 ft | 100 kts | 30° |
| 2026-04-30 00:03 | 33.73225 | -116.08967 | 6047 ft | 107 kts | 29° |
| 2026-04-30 00:03 | 33.73836 | -116.08456 | 6177 ft | 109 kts | 31° |
| 2026-04-30 00:04 | 33.74461 | -116.07931 | 6313 ft | 110 kts | 31° |
| 2026-04-30 00:04 | 33.75091 | -116.07403 | 6456 ft | 110 kts | 30° |
| 2026-04-30 00:04 | 33.75720 | -116.06874 | 6590 ft | 110 kts | 31° |
| 2026-04-30 00:04 | 33.76351 | -116.06346 | 6731 ft | 110 kts | 30° |
| 2026-04-30 00:05 | 33.76983 | -116.05819 | 6876 ft | 111 kts | 30° |
| 2026-04-30 00:05 | 33.77625 | -116.05282 | 7018 ft | 110 kts | 31° |
| 2026-04-30 00:05 | 33.78253 | -116.04752 | 7148 ft | 111 kts | 30° |
| 2026-04-30 00:05 | 33.78889 | -116.04217 | 7290 ft | 112 kts | 29° |
| 2026-04-30 00:06 | 33.79533 | -116.03679 | 7425 ft | 112 kts | 30° |
| 2026-04-30 00:06 | 33.80164 | -116.03155 | 7580 ft | 110 kts | 30° |
| 2026-04-30 00:06 | 33.80794 | -116.02622 | 7710 ft | 110 kts | 29° |
| 2026-04-30 00:06 | 33.81411 | -116.02104 | 7851 ft | 108 kts | 29° |
| 2026-04-30 00:07 | 33.82026 | -116.01594 | 7983 ft | 107 kts | 30° |
| 2026-04-30 00:07 | 33.82661 | -116.01062 | 8038 ft | 114 kts | 31° |
| 2026-04-30 00:07 | 33.83331 | -116.00497 | 8069 ft | 122 kts | 31° |
| 2026-04-30 00:07 | 33.84044 | -115.99901 | 8146 ft | 126 kts | 31° |
| 2026-04-30 00:08 | 33.84777 | -115.99282 | 8253 ft | 128 kts | 31° |
| 2026-04-30 00:08 | 33.85508 | -115.98666 | 8386 ft | 127 kts | 30° |
| 2026-04-30 00:08 | 33.86231 | -115.98064 | 8505 ft | 127 kts | 31° |
| 2026-04-30 00:08 | 33.86961 | -115.97450 | 8618 ft | 127 kts | 32° |
| 2026-04-30 00:09 | 33.87683 | -115.96838 | 8730 ft | 126 kts | 30° |
| 2026-04-30 00:09 | 33.88406 | -115.96236 | 8836 ft | 126 kts | 31° |
| 2026-04-30 00:09 | 33.89118 | -115.95634 | 8945 ft | 125 kts | 30° |
| 2026-04-30 00:09 | 33.89834 | -115.95033 | 9056 ft | 124 kts | 31° |
| 2026-04-30 00:10 | 33.90541 | -115.94440 | 9153 ft | 124 kts | 31° |
| 2026-04-30 00:10 | 33.91248 | -115.93843 | 9249 ft | 123 kts | 31° |
| 2026-04-30 00:10 | 33.91954 | -115.93252 | 9328 ft | 124 kts | 32° |
| 2026-04-30 00:10 | 33.92668 | -115.92650 | 9421 ft | 124 kts | 31° |
| 2026-04-30 00:11 | 33.93387 | -115.92048 | 9481 ft | 126 kts | 32° |
| 2026-04-30 00:11 | 33.94111 | -115.91436 | 9553 ft | 127 kts | 32° |
| 2026-04-30 00:11 | 33.94832 | -115.90827 | 9631 ft | 127 kts | 31° |
| 2026-04-30 00:11 | 33.95567 | -115.90209 | 9698 ft | 128 kts | 31° |
| 2026-04-30 00:12 | 33.96302 | -115.89587 | 9762 ft | 129 kts | 31° |
| 2026-04-30 00:12 | 33.97049 | -115.88963 | 9833 ft | 130 kts | 31° |
| 2026-04-30 00:12 | 33.97786 | -115.88338 | 9905 ft | 130 kts | 31° |
| 2026-04-30 00:12 | 33.98529 | -115.87718 | 9976 ft | 130 kts | 31° |
| 2026-04-30 00:13 | 33.99271 | -115.87086 | 10040 ft | 131 kts | 30° |
| 2026-04-30 00:13 | 34.00029 | -115.86453 | 10117 ft | 130 kts | 32° |
| 2026-04-30 00:13 | 34.00773 | -115.85820 | 10183 ft | 130 kts | 31° |
| 2026-04-30 00:13 | 34.01512 | -115.85203 | 10249 ft | 130 kts | 31° |
| 2026-04-30 00:14 | 34.02260 | -115.84570 | 10316 ft | 131 kts | 31° |
| 2026-04-30 00:14 | 34.03002 | -115.83946 | 10378 ft | 131 kts | 31° |
| 2026-04-30 00:14 | 34.03752 | -115.83306 | 10438 ft | 132 kts | 30° |
| 2026-04-30 00:14 | 34.04511 | -115.82667 | 10496 ft | 132 kts | 31° |
| 2026-04-30 00:15 | 34.05266 | -115.82034 | 10572 ft | 132 kts | 31° |
| 2026-04-30 00:15 | 34.06014 | -115.81401 | 10623 ft | 133 kts | 30° |
| 2026-04-30 00:15 | 34.06782 | -115.80754 | 10685 ft | 133 kts | 29° |
| 2026-04-30 00:15 | 34.07550 | -115.80102 | 10733 ft | 135 kts | 29° |
| 2026-04-30 00:16 | 34.08323 | -115.79451 | 10780 ft | 136 kts | 30° |
| 2026-04-30 00:16 | 34.09096 | -115.78804 | 10853 ft | 135 kts | 31° |
| 2026-04-30 00:16 | 34.09861 | -115.78155 | 10921 ft | 135 kts | 30° |
| 2026-04-30 00:16 | 34.10639 | -115.77493 | 10976 ft | 135 kts | 30° |
| 2026-04-30 00:17 | 34.11324 | -115.76723 | 11016 ft | 140 kts | 52° |
| 2026-04-30 00:17 | 34.11845 | -115.75744 | 11089 ft | 138 kts | 53° |
| 2026-04-30 00:17 | 34.12362 | -115.74748 | 11131 ft | 140 kts | 54° |
| 2026-04-30 00:17 | 34.12888 | -115.73747 | 11177 ft | 141 kts | 54° |
| 2026-04-30 00:18 | 34.13416 | -115.72720 | 11177 ft | 146 kts | 54° |
| 2026-04-30 00:18 | 34.13963 | -115.71661 | 11176 ft | 151 kts | 54° |
| 2026-04-30 00:18 | 34.14525 | -115.70572 | 11180 ft | 156 kts | 54° |
| 2026-04-30 00:18 | 34.15109 | -115.69441 | 11184 ft | 159 kts | 54° |
| 2026-04-30 00:19 | 34.15698 | -115.68290 | 11176 ft | 163 kts | 54° |
| 2026-04-30 00:19 | 34.16302 | -115.67108 | 11160 ft | 167 kts | 54° |
| 2026-04-30 00:19 | 34.16908 | -115.65924 | 11144 ft | 169 kts | 55° |
| 2026-04-30 00:19 | 34.17534 | -115.64697 | 11124 ft | 171 kts | 54° |
| 2026-04-30 00:20 | 34.18162 | -115.63474 | 11101 ft | 173 kts | 54° |
| 2026-04-30 00:20 | 34.18794 | -115.62237 | 11085 ft | 173 kts | 54° |
| 2026-04-30 00:20 | 34.19427 | -115.61006 | 11093 ft | 172 kts | 55° |
| 2026-04-30 00:20 | 34.20056 | -115.59771 | 11090 ft | 172 kts | 55° |
| 2026-04-30 00:21 | 34.20688 | -115.58537 | 11083 ft | 172 kts | 54° |
| 2026-04-30 00:21 | 34.21315 | -115.57304 | 11084 ft | 171 kts | 54° |
| 2026-04-30 00:21 | 34.22063 | -115.56215 | 11087 ft | 169 kts | 46° |
| 2026-04-30 00:21 | 34.22708 | -115.55017 | 11081 ft | 171 kts | 54° |
| 2026-04-30 00:22 | 34.23312 | -115.53774 | 11079 ft | 171 kts | 58° |
| 2026-04-30 00:22 | 34.23888 | -115.52508 | 11078 ft | 171 kts | 58° |
| 2026-04-30 00:22 | 34.24480 | -115.51260 | 11081 ft | 171 kts | 56° |
| 2026-04-30 00:22 | 34.25090 | -115.50010 | 11076 ft | 172 kts | 56° |
| 2026-04-30 00:23 | 34.25705 | -115.48767 | 11070 ft | 172 kts | 56° |
| 2026-04-30 00:23 | 34.26326 | -115.47522 | 11060 ft | 173 kts | 54° |
| 2026-04-30 00:23 | 34.26950 | -115.46287 | 11057 ft | 173 kts | 55° |
| 2026-04-30 00:23 | 34.27584 | -115.45033 | 11051 ft | 173 kts | 55° |
| 2026-04-30 00:24 | 34.28209 | -115.43799 | 11049 ft | 174 kts | 54° |
| 2026-04-30 00:24 | 34.28845 | -115.42547 | 11048 ft | 173 kts | 54° |
| 2026-04-30 00:24 | 34.29479 | -115.41303 | 11048 ft | 173 kts | 55° |
| 2026-04-30 00:24 | 34.30107 | -115.40061 | 11047 ft | 173 kts | 54° |
| 2026-04-30 00:25 | 34.30736 | -115.38825 | 11044 ft | 173 kts | 54° |
| 2026-04-30 00:25 | 34.31369 | -115.37574 | 11044 ft | 174 kts | 55° |
| 2026-04-30 00:25 | 34.31999 | -115.36340 | 11049 ft | 174 kts | 54° |
| 2026-04-30 00:25 | 34.32635 | -115.35083 | 11046 ft | 174 kts | 54° |
| 2026-04-30 00:26 | 34.33278 | -115.33824 | 11042 ft | 174 kts | 55° |
| 2026-04-30 00:26 | 34.33910 | -115.32576 | 11042 ft | 174 kts | 55° |
| 2026-04-30 00:26 | 34.34542 | -115.31328 | 11040 ft | 174 kts | 56° |
| 2026-04-30 00:26 | 34.35177 | -115.30077 | 11040 ft | 174 kts | 56° |
| 2026-04-30 00:27 | 34.35805 | -115.28838 | 11042 ft | 174 kts | 55° |
| 2026-04-30 00:27 | 34.36440 | -115.27587 | 11046 ft | 174 kts | 56° |
| 2026-04-30 00:27 | 34.37070 | -115.26339 | 11050 ft | 173 kts | 55° |
| 2026-04-30 00:27 | 34.37700 | -115.25097 | 11055 ft | 173 kts | 55° |
| 2026-04-30 00:28 | 34.38335 | -115.23840 | 11055 ft | 174 kts | 55° |
| 2026-04-30 00:28 | 34.38962 | -115.22601 | 11058 ft | 174 kts | 54° |
| 2026-04-30 00:28 | 34.39594 | -115.21355 | 11058 ft | 174 kts | 55° |
| 2026-04-30 00:28 | 34.40228 | -115.20100 | 11058 ft | 175 kts | 55° |
| 2026-04-30 00:29 | 34.40865 | -115.18845 | 11060 ft | 174 kts | 56° |
| 2026-04-30 00:29 | 34.41490 | -115.17605 | 11059 ft | 174 kts | 56° |
| 2026-04-30 00:29 | 34.42119 | -115.16361 | 11061 ft | 174 kts | 56° |
| 2026-04-30 00:29 | 34.42752 | -115.15105 | 11053 ft | 174 kts | 56° |
| 2026-04-30 00:30 | 34.43386 | -115.13848 | 11054 ft | 174 kts | 55° |
| 2026-04-30 00:30 | 34.44017 | -115.12592 | 11059 ft | 174 kts | 55° |
| 2026-04-30 00:30 | 34.44645 | -115.11350 | 11055 ft | 174 kts | 55° |
| 2026-04-30 00:30 | 34.45271 | -115.10108 | 11061 ft | 174 kts | 55° |
| 2026-04-30 00:31 | 34.45907 | -115.08850 | 11058 ft | 174 kts | 54° |
| 2026-04-30 00:31 | 34.46539 | -115.07601 | 11058 ft | 174 kts | 55° |
| 2026-04-30 00:31 | 34.47166 | -115.06355 | 11057 ft | 174 kts | 55° |
| 2026-04-30 00:31 | 34.47794 | -115.05107 | 11062 ft | 174 kts | 56° |
| 2026-04-30 00:32 | 34.48424 | -115.03854 | 11056 ft | 173 kts | 56° |
| 2026-04-30 00:32 | 34.49055 | -115.02602 | 11055 ft | 174 kts | 55° |
| 2026-04-30 00:32 | 34.49676 | -115.01365 | 11058 ft | 174 kts | 56° |
| 2026-04-30 00:32 | 34.50309 | -115.00108 | 11058 ft | 173 kts | 55° |
| 2026-04-30 00:33 | 34.50937 | -114.98851 | 11054 ft | 174 kts | 55° |
| 2026-04-30 00:33 | 34.51565 | -114.97601 | 11055 ft | 174 kts | 55° |
| 2026-04-30 00:33 | 34.52186 | -114.96368 | 11055 ft | 173 kts | 54° |
| 2026-04-30 00:33 | 34.52824 | -114.95107 | 11058 ft | 173 kts | 56° |
| 2026-04-30 00:34 | 34.53450 | -114.93858 | 11055 ft | 173 kts | 55° |
| 2026-04-30 00:34 | 34.54072 | -114.92613 | 11055 ft | 174 kts | 54° |
| 2026-04-30 00:34 | 34.54702 | -114.91356 | 11055 ft | 174 kts | 55° |
| 2026-04-30 00:34 | 34.55335 | -114.90099 | 11050 ft | 175 kts | 56° |
| 2026-04-30 00:35 | 34.55967 | -114.88835 | 11045 ft | 175 kts | 55° |
| 2026-04-30 00:35 | 34.56594 | -114.87585 | 11050 ft | 174 kts | 55° |
| 2026-04-30 00:35 | 34.57222 | -114.86334 | 11052 ft | 174 kts | 55° |
| 2026-04-30 00:35 | 34.57844 | -114.85085 | 11054 ft | 174 kts | 55° |
| 2026-04-30 00:36 | 34.58473 | -114.83833 | 11060 ft | 174 kts | 55° |
| 2026-04-30 00:36 | 34.59099 | -114.82577 | 11056 ft | 174 kts | 55° |
| 2026-04-30 00:36 | 34.59736 | -114.81310 | 11066 ft | 173 kts | 55° |
| 2026-04-30 00:36 | 34.60355 | -114.80066 | 11069 ft | 174 kts | 55° |
| 2026-04-30 00:37 | 34.60984 | -114.78809 | 11072 ft | 174 kts | 55° |
| 2026-04-30 00:37 | 34.61615 | -114.77543 | 11063 ft | 174 kts | 55° |
| 2026-04-30 00:37 | 34.62239 | -114.76299 | 11057 ft | 175 kts | 55° |
| 2026-04-30 00:37 | 34.62868 | -114.75042 | 11055 ft | 174 kts | 55° |
| 2026-04-30 00:38 | 34.63492 | -114.73784 | 11055 ft | 174 kts | 55° |
| 2026-04-30 00:38 | 34.64120 | -114.72531 | 11058 ft | 173 kts | 55° |
| 2026-04-30 00:38 | 34.64748 | -114.71271 | 11053 ft | 174 kts | 56° |
| 2026-04-30 00:38 | 34.65372 | -114.70021 | 11054 ft | 173 kts | 56° |
| 2026-04-30 00:39 | 34.65989 | -114.68780 | 11051 ft | 173 kts | 55° |
| 2026-04-30 00:39 | 34.66613 | -114.67524 | 11055 ft | 173 kts | 55° |
| 2026-04-30 00:39 | 34.67242 | -114.66268 | 11055 ft | 174 kts | 56° |
| 2026-04-30 00:39 | 34.67868 | -114.65007 | 11049 ft | 175 kts | 55° |
| 2026-04-30 00:40 | 34.68505 | -114.63733 | 11043 ft | 175 kts | 55° |
| 2026-04-30 00:40 | 34.69130 | -114.62473 | 11036 ft | 175 kts | 55° |
| 2026-04-30 00:40 | 34.69758 | -114.61211 | 11034 ft | 175 kts | 55° |
| 2026-04-30 00:40 | 34.70388 | -114.59940 | 11035 ft | 175 kts | 54° |
| 2026-04-30 00:41 | 34.71017 | -114.58681 | 11033 ft | 174 kts | 56° |
| 2026-04-30 00:41 | 34.71643 | -114.57416 | 11029 ft | 175 kts | 55° |
| 2026-04-30 00:41 | 34.72272 | -114.56151 | 11026 ft | 175 kts | 55° |
| 2026-04-30 00:41 | 34.72900 | -114.54886 | 11025 ft | 175 kts | 55° |
| 2026-04-30 00:42 | 34.73530 | -114.53615 | 11020 ft | 175 kts | 55° |
| 2026-04-30 00:42 | 34.74158 | -114.52356 | 11020 ft | 175 kts | 56° |
| 2026-04-30 00:42 | 34.74786 | -114.51087 | 11018 ft | 175 kts | 55° |
| 2026-04-30 00:42 | 34.75413 | -114.49824 | 11016 ft | 175 kts | 55° |
| 2026-04-30 00:43 | 34.76039 | -114.48558 | 11018 ft | 175 kts | 55° |
| 2026-04-30 00:43 | 34.76521 | -114.47199 | 10996 ft | 179 kts | 82° |
| 2026-04-30 00:43 | 34.76530 | -114.45703 | 11020 ft | 177 kts | 89° |
| 2026-04-30 00:43 | 34.76506 | -114.44196 | 11027 ft | 177 kts | 89° |
| 2026-04-30 00:44 | 34.76477 | -114.42700 | 11031 ft | 177 kts | 89° |
| 2026-04-30 00:44 | 34.76445 | -114.41208 | 11039 ft | 177 kts | 90° |
| 2026-04-30 00:44 | 34.76413 | -114.39709 | 11042 ft | 177 kts | 90° |
| 2026-04-30 00:44 | 34.76377 | -114.38216 | 11045 ft | 177 kts | 90° |
| 2026-04-30 00:45 | 34.76342 | -114.36715 | 11046 ft | 178 kts | 90° |
| 2026-04-30 00:45 | 34.76306 | -114.35216 | 11042 ft | 178 kts | 90° |
| 2026-04-30 00:45 | 34.76270 | -114.33704 | 11048 ft | 178 kts | 90° |
| 2026-04-30 00:45 | 34.76232 | -114.32185 | 11048 ft | 178 kts | 91° |
| 2026-04-30 00:46 | 34.76194 | -114.30672 | 11044 ft | 179 kts | 91° |
| 2026-04-30 00:46 | 34.76156 | -114.29160 | 11051 ft | 179 kts | 91° |
| 2026-04-30 00:46 | 34.76119 | -114.27646 | 11047 ft | 180 kts | 91° |
| 2026-04-30 00:46 | 34.76081 | -114.26134 | 11045 ft | 179 kts | 91° |
| 2026-04-30 00:47 | 34.76040 | -114.24611 | 11048 ft | 179 kts | 91° |
| 2026-04-30 00:47 | 34.76002 | -114.23110 | 11056 ft | 179 kts | 91° |
| 2026-04-30 00:47 | 34.75964 | -114.21613 | 11059 ft | 179 kts | 91° |
| 2026-04-30 00:47 | 34.75923 | -114.20087 | 11068 ft | 179 kts | 90° |
| 2026-04-30 00:48 | 34.75884 | -114.18586 | 11077 ft | 178 kts | 91° |
| 2026-04-30 00:48 | 34.75846 | -114.17075 | 11083 ft | 179 kts | 90° |
| 2026-04-30 00:48 | 34.75808 | -114.15565 | 11085 ft | 179 kts | 91° |
| 2026-04-30 00:48 | 34.75767 | -114.14054 | 11088 ft | 179 kts | 91° |
| 2026-04-30 00:49 | 34.75728 | -114.12533 | 11097 ft | 179 kts | 91° |
| 2026-04-30 00:49 | 34.75688 | -114.11017 | 11093 ft | 180 kts | 91° |
| 2026-04-30 00:49 | 34.75648 | -114.09518 | 11099 ft | 180 kts | 91° |
| 2026-04-30 00:49 | 34.75606 | -114.08003 | 11106 ft | 179 kts | 91° |
| 2026-04-30 00:50 | 34.75565 | -114.06488 | 11110 ft | 180 kts | 91° |
| 2026-04-30 00:50 | 34.75524 | -114.04967 | 11118 ft | 180 kts | 91° |
| 2026-04-30 00:50 | 34.75482 | -114.03449 | 11127 ft | 179 kts | 91° |
| 2026-04-30 00:50 | 34.75439 | -114.01945 | 11132 ft | 179 kts | 91° |
| 2026-04-30 00:51 | 34.75398 | -114.00413 | 11144 ft | 179 kts | 91° |
| 2026-04-30 00:51 | 34.75357 | -113.98898 | 11148 ft | 179 kts | 91° |
| 2026-04-30 00:51 | 34.75316 | -113.97396 | 11151 ft | 179 kts | 91° |
| 2026-04-30 00:51 | 34.75274 | -113.95887 | 11148 ft | 179 kts | 91° |
| 2026-04-30 00:52 | 34.75232 | -113.94362 | 11156 ft | 179 kts | 91° |
| 2026-04-30 00:52 | 34.75190 | -113.92842 | 11157 ft | 179 kts | 91° |
| 2026-04-30 00:52 | 34.75147 | -113.91326 | 11157 ft | 180 kts | 91° |
| 2026-04-30 00:52 | 34.75104 | -113.89806 | 11161 ft | 180 kts | 91° |
| 2026-04-30 00:53 | 34.75061 | -113.88287 | 11163 ft | 180 kts | 91° |
| 2026-04-30 00:53 | 34.75017 | -113.86781 | 11165 ft | 180 kts | 91° |
| 2026-04-30 00:53 | 34.74974 | -113.85255 | 11168 ft | 181 kts | 91° |
| 2026-04-30 00:53 | 34.74929 | -113.83720 | 11167 ft | 181 kts | 91° |
| 2026-04-30 00:54 | 34.74886 | -113.82194 | 11170 ft | 180 kts | 91° |
| 2026-04-30 00:54 | 34.74841 | -113.80672 | 11177 ft | 180 kts | 91° |
| 2026-04-30 00:54 | 34.74796 | -113.79152 | 11182 ft | 181 kts | 91° |
| 2026-04-30 00:54 | 34.74750 | -113.77607 | 11186 ft | 181 kts | 91° |
| 2026-04-30 00:55 | 34.74706 | -113.76096 | 11187 ft | 181 kts | 91° |
| 2026-04-30 00:55 | 34.74662 | -113.74557 | 11186 ft | 181 kts | 91° |
| 2026-04-30 00:55 | 34.74573 | -113.71517 | 11188 ft | 180 kts | 91° |
| 2026-04-30 00:56 | 34.74527 | -113.69994 | 11181 ft | 180 kts | 91° |
| 2026-04-30 00:56 | 34.74480 | -113.68469 | 11183 ft | 180 kts | 91° |
| 2026-04-30 00:56 | 34.74436 | -113.66953 | 11181 ft | 180 kts | 91° |
| 2026-04-30 00:56 | 34.74389 | -113.65420 | 11184 ft | 179 kts | 91° |
| 2026-04-30 00:57 | 34.74344 | -113.63904 | 11178 ft | 180 kts | 92° |
| 2026-04-30 00:57 | 34.74297 | -113.62387 | 11180 ft | 180 kts | 92° |
| 2026-04-30 00:57 | 34.74249 | -113.60873 | 11188 ft | 179 kts | 91° |
| 2026-04-30 00:57 | 34.74202 | -113.59360 | 11186 ft | 180 kts | 91° |
| 2026-04-30 00:58 | 34.74156 | -113.57854 | 11189 ft | 180 kts | 91° |
| 2026-04-30 00:58 | 34.74110 | -113.56336 | 11193 ft | 180 kts | 91° |
| 2026-04-30 00:58 | 34.74061 | -113.54803 | 11191 ft | 180 kts | 91° |
| 2026-04-30 00:58 | 34.74013 | -113.53284 | 11190 ft | 180 kts | 91° |
| 2026-04-30 00:59 | 34.73965 | -113.51764 | 11186 ft | 181 kts | 91° |
| 2026-04-30 00:59 | 34.73917 | -113.50221 | 11190 ft | 181 kts | 91° |
| 2026-04-30 00:59 | 34.73871 | -113.48709 | 11186 ft | 181 kts | 91° |
| 2026-04-30 00:59 | 34.73822 | -113.47173 | 11190 ft | 181 kts | 91° |
| 2026-04-30 01:00 | 34.73773 | -113.45659 | 11193 ft | 181 kts | 91° |
| 2026-04-30 01:00 | 34.73723 | -113.44109 | 11195 ft | 181 kts | 91° |
| 2026-04-30 01:00 | 34.73675 | -113.42586 | 11197 ft | 181 kts | 92° |
| 2026-04-30 01:00 | 34.73624 | -113.41064 | 11200 ft | 181 kts | 91° |
| 2026-04-30 01:01 | 34.73577 | -113.39544 | 11206 ft | 181 kts | 91° |
| 2026-04-30 01:01 | 34.73526 | -113.38013 | 11195 ft | 181 kts | 91° |
| 2026-04-30 01:01 | 34.73476 | -113.36479 | 11192 ft | 181 kts | 91° |
| 2026-04-30 01:01 | 34.73426 | -113.34972 | 11196 ft | 181 kts | 92° |
| 2026-04-30 01:02 | 34.73376 | -113.33442 | 11200 ft | 181 kts | 92° |
| 2026-04-30 01:02 | 34.73326 | -113.31915 | 11197 ft | 180 kts | 92° |
| 2026-04-30 01:02 | 34.73275 | -113.30383 | 11198 ft | 179 kts | 92° |
| 2026-04-30 01:02 | 34.73225 | -113.28879 | 11200 ft | 178 kts | 92° |
| 2026-04-30 01:03 | 34.73175 | -113.27397 | 11203 ft | 177 kts | 92° |
| 2026-04-30 01:03 | 34.73126 | -113.25900 | 11198 ft | 177 kts | 92° |
| 2026-04-30 01:03 | 34.73077 | -113.24402 | 11214 ft | 177 kts | 92° |
| 2026-04-30 01:03 | 34.73025 | -113.22919 | 11217 ft | 177 kts | 92° |
| 2026-04-30 01:04 | 34.72975 | -113.21421 | 11215 ft | 177 kts | 92° |
| 2026-04-30 01:04 | 34.72926 | -113.19920 | 11214 ft | 178 kts | 92° |
| 2026-04-30 01:04 | 34.72873 | -113.18421 | 11214 ft | 178 kts | 92° |
| 2026-04-30 01:04 | 34.72821 | -113.16921 | 11224 ft | 178 kts | 92° |
| 2026-04-30 01:05 | 34.72769 | -113.15425 | 11224 ft | 178 kts | 92° |
| 2026-04-30 01:05 | 34.72717 | -113.13915 | 11229 ft | 177 kts | 92° |
| 2026-04-30 01:05 | 34.72666 | -113.12428 | 11236 ft | 176 kts | 92° |
| 2026-04-30 01:05 | 34.72614 | -113.10936 | 11240 ft | 177 kts | 92° |
| 2026-04-30 01:06 | 34.72562 | -113.09450 | 11246 ft | 177 kts | 92° |
| 2026-04-30 01:06 | 34.72511 | -113.07958 | 11251 ft | 177 kts | 92° |
| 2026-04-30 01:06 | 34.72458 | -113.06451 | 11251 ft | 177 kts | 92° |
| 2026-04-30 01:06 | 34.72404 | -113.04958 | 11259 ft | 177 kts | 92° |
| 2026-04-30 01:07 | 34.72352 | -113.03475 | 11271 ft | 176 kts | 92° |
| 2026-04-30 01:07 | 34.72300 | -113.01986 | 11276 ft | 176 kts | 93° |
| 2026-04-30 01:07 | 34.72247 | -113.00504 | 11274 ft | 177 kts | 92° |
| 2026-04-30 01:07 | 34.72192 | -112.99003 | 11277 ft | 177 kts | 93° |
| 2026-04-30 01:08 | 34.72139 | -112.97495 | 11268 ft | 178 kts | 92° |
| 2026-04-30 01:08 | 34.72085 | -112.96012 | 11264 ft | 178 kts | 92° |
| 2026-04-30 01:08 | 34.72030 | -112.94515 | 11261 ft | 177 kts | 92° |
| 2026-04-30 01:08 | 34.71975 | -112.93014 | 11262 ft | 177 kts | 92° |
| 2026-04-30 01:09 | 34.71922 | -112.91521 | 11258 ft | 177 kts | 93° |
| 2026-04-30 01:09 | 34.71865 | -112.90022 | 11265 ft | 176 kts | 92° |
| 2026-04-30 01:09 | 34.71811 | -112.88547 | 11263 ft | 176 kts | 92° |
| 2026-04-30 01:09 | 34.71757 | -112.87050 | 11261 ft | 176 kts | 93° |
| 2026-04-30 01:10 | 34.71702 | -112.85567 | 11263 ft | 177 kts | 93° |
| 2026-04-30 01:10 | 34.71647 | -112.84072 | 11259 ft | 177 kts | 93° |
| 2026-04-30 01:10 | 34.71592 | -112.82575 | 11257 ft | 177 kts | 93° |
| 2026-04-30 01:10 | 34.71536 | -112.81095 | 11257 ft | 177 kts | 93° |
| 2026-04-30 01:11 | 34.71480 | -112.79603 | 11252 ft | 177 kts | 93° |
| 2026-04-30 01:11 | 34.71422 | -112.78094 | 11252 ft | 177 kts | 92° |
| 2026-04-30 01:11 | 34.71367 | -112.76604 | 11247 ft | 178 kts | 93° |
| 2026-04-30 01:11 | 34.71319 | -112.75101 | 11248 ft | 177 kts | 92° |
| 2026-04-30 01:12 | 34.71273 | -112.73626 | 11249 ft | 177 kts | 92° |
| 2026-04-30 01:12 | 34.71229 | -112.72124 | 11247 ft | 177 kts | 92° |
| 2026-04-30 01:12 | 34.71185 | -112.70625 | 11243 ft | 177 kts | 92° |
| 2026-04-30 01:12 | 34.71139 | -112.69146 | 11238 ft | 177 kts | 92° |
| 2026-04-30 01:13 | 34.71086 | -112.67641 | 11243 ft | 177 kts | 93° |
| 2026-04-30 01:13 | 34.71023 | -112.66145 | 11242 ft | 177 kts | 93° |
| 2026-04-30 01:13 | 34.70961 | -112.64652 | 11240 ft | 177 kts | 93° |
| 2026-04-30 01:13 | 34.70901 | -112.63166 | 11235 ft | 177 kts | 93° |
| 2026-04-30 01:14 | 34.70836 | -112.61667 | 11231 ft | 178 kts | 93° |
| 2026-04-30 01:14 | 34.70775 | -112.60171 | 11227 ft | 178 kts | 93° |
| 2026-04-30 01:14 | 34.70708 | -112.58673 | 11227 ft | 177 kts | 93° |
| 2026-04-30 01:14 | 34.70647 | -112.57188 | 11231 ft | 177 kts | 93° |
| 2026-04-30 01:15 | 34.70583 | -112.55701 | 11231 ft | 177 kts | 93° |
| 2026-04-30 01:15 | 34.70520 | -112.54201 | 11233 ft | 177 kts | 93° |
| 2026-04-30 01:15 | 34.70456 | -112.52708 | 11235 ft | 177 kts | 92° |
| 2026-04-30 01:15 | 34.70393 | -112.51218 | 11235 ft | 177 kts | 93° |
| 2026-04-30 01:16 | 34.70328 | -112.49720 | 11232 ft | 177 kts | 93° |
| 2026-04-30 01:16 | 34.70277 | -112.48241 | 11232 ft | 177 kts | 86° |
| 2026-04-30 01:16 | 34.70544 | -112.46789 | 11236 ft | 176 kts | 74° |
| 2026-04-30 01:16 | 34.70861 | -112.45335 | 11240 ft | 176 kts | 73° |
| 2026-04-30 01:17 | 34.71176 | -112.43894 | 11237 ft | 177 kts | 73° |
| 2026-04-30 01:17 | 34.71494 | -112.42450 | 11236 ft | 177 kts | 73° |
| 2026-04-30 01:17 | 34.71809 | -112.41007 | 11235 ft | 177 kts | 73° |
| 2026-04-30 01:17 | 34.72131 | -112.39550 | 11238 ft | 177 kts | 73° |
| 2026-04-30 01:18 | 34.72451 | -112.38096 | 11237 ft | 178 kts | 73° |
| 2026-04-30 01:18 | 34.72768 | -112.36649 | 11236 ft | 178 kts | 73° |
| 2026-04-30 01:18 | 34.73089 | -112.35192 | 11242 ft | 178 kts | 73° |
| 2026-04-30 01:18 | 34.73409 | -112.33732 | 11240 ft | 178 kts | 74° |
| 2026-04-30 01:19 | 34.73726 | -112.32281 | 11210 ft | 179 kts | 74° |
| 2026-04-30 01:19 | 34.74043 | -112.30843 | 11203 ft | 179 kts | 74° |
| 2026-04-30 01:19 | 34.74367 | -112.29366 | 11192 ft | 180 kts | 73° |
| 2026-04-30 01:19 | 34.74688 | -112.27900 | 11195 ft | 179 kts | 74° |
| 2026-04-30 01:20 | 34.75004 | -112.26453 | 11203 ft | 178 kts | 74° |
| 2026-04-30 01:20 | 34.75321 | -112.25005 | 11208 ft | 177 kts | 73° |
| 2026-04-30 01:20 | 34.75640 | -112.23542 | 11201 ft | 177 kts | 74° |
| 2026-04-30 01:20 | 34.75954 | -112.22110 | 11198 ft | 177 kts | 74° |
| 2026-04-30 01:21 | 34.76274 | -112.20651 | 11189 ft | 177 kts | 74° |
| 2026-04-30 01:21 | 34.76586 | -112.19208 | 11173 ft | 177 kts | 74° |
| 2026-04-30 01:21 | 34.76902 | -112.17798 | 11158 ft | 170 kts | 73° |
| 2026-04-30 01:21 | 34.77110 | -112.16414 | 11118 ft | 166 kts | 96° |
| 2026-04-30 01:22 | 34.76682 | -112.15162 | 11113 ft | 156 kts | 127° |
| 2026-04-30 01:22 | 34.76046 | -112.14157 | 11048 ft | 144 kts | 135° |
| 2026-04-30 01:22 | 34.75396 | -112.13278 | 10860 ft | 138 kts | 137° |
| 2026-04-30 01:22 | 34.74736 | -112.12431 | 10598 ft | 140 kts | 140° |
| 2026-04-30 01:23 | 34.74065 | -112.11604 | 10386 ft | 137 kts | 140° |
| 2026-04-30 01:23 | 34.73392 | -112.10777 | 10138 ft | 138 kts | 140° |
| 2026-04-30 01:23 | 34.72713 | -112.09948 | 9900 ft | 138 kts | 139° |
| 2026-04-30 01:23 | 34.72055 | -112.09143 | 9755 ft | 129 kts | 140° |
| 2026-04-30 01:24 | 34.71448 | -112.08413 | 9729 ft | 120 kts | 138° |
| 2026-04-30 01:24 | 34.70859 | -112.07695 | 9731 ft | 122 kts | 140° |
| 2026-04-30 01:24 | 34.70240 | -112.06949 | 9734 ft | 128 kts | 137° |
| 2026-04-30 01:24 | 34.69587 | -112.06156 | 9701 ft | 134 kts | 139° |
| 2026-04-30 01:25 | 34.68909 | -112.05334 | 9666 ft | 141 kts | 139° |
| 2026-04-30 01:25 | 34.68212 | -112.04492 | 9617 ft | 143 kts | 140° |
| 2026-04-30 01:25 | 34.67505 | -112.03626 | 9561 ft | 142 kts | 139° |
| 2026-04-30 01:25 | 34.66885 | -112.02714 | 9541 ft | 140 kts | 115° |
| 2026-04-30 01:26 | 34.66829 | -112.01553 | 9454 ft | 143 kts | 71° |
| 2026-04-30 01:26 | 34.67377 | -112.00568 | 9303 ft | 147 kts | 41° |
| 2026-04-30 01:26 | 34.68133 | -111.99626 | 9127 ft | 159 kts | 41° |
| 2026-04-30 01:26 | 34.68927 | -111.98647 | 8962 ft | 168 kts | 43° |
| 2026-04-30 01:27 | 34.69771 | -111.97601 | 8790 ft | 175 kts | 43° |
| 2026-04-30 01:27 | 34.70631 | -111.96536 | 8608 ft | 179 kts | 43° |
| 2026-04-30 01:27 | 34.71506 | -111.95457 | 8404 ft | 176 kts | 44° |
| 2026-04-30 01:27 | 34.72356 | -111.94398 | 8222 ft | 169 kts | 44° |
| 2026-04-30 01:28 | 34.73146 | -111.93414 | 8100 ft | 160 kts | 45° |
| 2026-04-30 01:28 | 34.73929 | -111.92446 | 7866 ft | 159 kts | 45° |
| 2026-04-30 01:28 | 34.74699 | -111.91490 | 7627 ft | 160 kts | 45° |
| 2026-04-30 01:28 | 34.75476 | -111.90523 | 7446 ft | 156 kts | 45° |
| 2026-04-30 01:29 | 34.76199 | -111.89622 | 7395 ft | 144 kts | 46° |
| 2026-04-30 01:29 | 34.76905 | -111.88744 | 7192 ft | 144 kts | 47° |
| 2026-04-30 01:29 | 34.77612 | -111.87864 | 6972 ft | 144 kts | 47° |
| 2026-04-30 01:29 | 34.78319 | -111.86983 | 6735 ft | 145 kts | 46° |
| 2026-04-30 01:30 | 34.79021 | -111.86112 | 6502 ft | 145 kts | 49° |
| 2026-04-30 01:30 | 34.79731 | -111.85229 | 6271 ft | 146 kts | 47° |
| 2026-04-30 01:30 | 34.80453 | -111.84328 | 5989 ft | 148 kts | 50° |
| 2026-04-30 01:30 | 34.81147 | -111.83472 | 5901 ft | 134 kts | 48° |
| 2026-04-30 01:31 | 34.81820 | -111.82652 | 5646 ft | 132 kts | 47° |
| 2026-04-30 01:31 | 34.82409 | -111.81922 | 5379 ft | 112 kts | 50° |
| 2026-04-30 01:31 | 34.82933 | -111.81278 | 5164 ft | 103 kts | 49° |
| 2026-04-30 01:31 | 34.83276 | -111.80838 | 5022 ft | 101 kts | 56° |
| 2026-04-30 01:32 | 34.83776 | -111.80225 | 4925 ft | 102 kts | 51° |
| 2026-04-30 01:32 | 34.84277 | -111.79584 | 4805 ft | 104 kts | 54° |
| 2026-04-30 01:32 | 34.84715 | -111.79039 | 4793 ft | 72 kts | 55° |
| 2026-04-30 01:32 | 34.84961 | -111.78721 | 4812 ft | 15 kts | 47° |
| 2026-04-30 01:33 | 34.85034 | -111.78713 | 4814 ft | 9 kts | 311° |
| 2026-04-30 01:33 | 34.85036 | -111.78745 | 4814 ft | 7 kts | 224° |
| 2026-04-30 01:33 | 34.84973 | -111.78823 | 4809 ft | 14 kts | 223° |
| 2026-04-30 01:33 | 34.84920 | -111.78898 | 4805 ft | 6 kts | 273° |
| 2026-04-30 01:34 | 34.84931 | -111.78921 | 4805 ft | 2 kts | 292° |
| 2026-04-30 01:34 | 34.84927 | -111.78938 | 4805 ft | 0 kts | 236° |
| 2026-04-30 01:34 | 34.84932 | -111.78947 | 4805 ft | 4 kts | 331° |
| 2026-04-30 01:34 | 34.84940 | -111.78957 | 4804 ft | 1 kts | 310° |
| 2026-04-30 01:35 | 34.84942 | -111.78959 | 4804 ft | 0 kts | 315° |